sensor_id;sensor_type;location;lat;lon;timestamp;pressure;altitude;pressure_sealevel;temperature;humidity
45927;BME280;31639;47.614;19.684;2022-09-09T00:02:26;99996.81;;;18.45;100.00
45927;BME280;31639;47.614;19.684;2022-09-09T00:07:44;100010.28;;;18.35;100.00
45927;BME280;31639;47.614;19.684;2022-09-09T00:18:17;99983.13;;;18.28;100.00
45927;BME280;31639;47.614;19.684;2022-09-09T00:23:25;99990.13;;;18.24;100.00
45927;BME280;31639;47.614;19.684;2022-09-09T00:28:28;99991.25;;;18.17;100.00
45927;BME280;31639;47.614;19.684;2022-09-09T00:33:32;99983.94;;;18.04;100.00
45927;BME280;31639;47.614;19.684;2022-09-09T00:38:36;99980.28;;;17.95;100.00
45927;BME280;31639;47.614;19.684;2022-09-09T00:43:40;99982.25;;;17.84;100.00
45927;BME280;31639;47.614;19.684;2022-09-09T01:04:36;99973.72;;;17.18;100.00
45927;BME280;31639;47.614;19.684;2022-09-09T01:09:57;99995.41;;;17.06;100.00
45927;BME280;31639;47.614;19.684;2022-09-09T01:15:18;100024.78;;;16.95;100.00
45927;BME280;31639;47.614;19.684;2022-09-09T01:20:25;100016.28;;;16.88;100.00
45927;BME280;31639;47.614;19.684;2022-09-09T01:26:04;100026.97;;;16.83;100.00
45927;BME280;31639;47.614;19.684;2022-09-09T01:31:11;100022.72;;;16.77;100.00
45927;BME280;31639;47.614;19.684;2022-09-09T01:36:25;100016.34;;;16.73;100.00
45927;BME280;31639;47.614;19.684;2022-09-09T01:41:26;100011.59;;;16.70;100.00
45927;BME280;31639;47.614;19.684;2022-09-09T01:46:27;100017.72;;;16.65;100.00
45927;BME280;31639;47.614;19.684;2022-09-09T01:51:29;100022.28;;;16.59;100.00
45927;BME280;31639;47.614;19.684;2022-09-09T02:02:09;100019.13;;;16.52;100.00
45927;BME280;31639;47.614;19.684;2022-09-09T02:07:30;100019.66;;;16.49;100.00
45927;BME280;31639;47.614;19.684;2022-09-09T02:12:35;100014.59;;;16.47;100.00
45927;BME280;31639;47.614;19.684;2022-09-09T02:17:40;100009.78;;;16.49;100.00
45927;BME280;31639;47.614;19.684;2022-09-09T02:22:44;100006.34;;;16.44;100.00
45927;BME280;31639;47.614;19.684;2022-09-09T02:27:47;100029.25;;;16.40;100.00
45927;BME280;31639;47.614;19.684;2022-09-09T02:32:52;100032.75;;;16.40;100.00
45927;BME280;31639;47.614;19.684;2022-09-09T02:37:59;100031.94;;;16.40;100.00
45927;BME280;31639;47.614;19.684;2022-09-09T02:43:02;100037.00;;;16.36;100.00
45927;BME280;31639;47.614;19.684;2022-09-09T02:53:13;100043.41;;;16.30;100.00
45927;BME280;31639;47.614;19.684;2022-09-09T02:58:17;100039.44;;;16.27;100.00
45927;BME280;31639;47.614;19.684;2022-09-09T03:03:19;100041.56;;;16.25;100.00
45927;BME280;31639;47.614;19.684;2022-09-09T03:08:20;100037.00;;;16.26;100.00
45927;BME280;31639;47.614;19.684;2022-09-09T03:13:20;100034.09;;;16.27;100.00
45927;BME280;31639;47.614;19.684;2022-09-09T03:18:21;100039.44;;;16.27;100.00
45927;BME280;31639;47.614;19.684;2022-09-09T03:23:21;100037.00;;;16.26;100.00
45927;BME280;31639;47.614;19.684;2022-09-09T03:28:22;100036.75;;;16.22;100.00
45927;BME280;31639;47.614;19.684;2022-09-09T03:33:23;100035.16;;;16.21;100.00
45927;BME280;31639;47.614;19.684;2022-09-09T03:38:24;100025.59;;;16.20;100.00
45927;BME280;31639;47.614;19.684;2022-09-09T03:43:26;100043.69;;;16.18;100.00
45927;BME280;31639;47.614;19.684;2022-09-09T03:48:27;100041.31;;;16.22;100.00
45927;BME280;31639;47.614;19.684;2022-09-09T03:53:28;100033.31;;;16.22;100.00
45927;BME280;31639;47.614;19.684;2022-09-09T03:58:29;100030.13;;;16.19;100.00
45927;BME280;31639;47.614;19.684;2022-09-09T04:03:30;100033.84;;;16.13;100.00
45927;BME280;31639;47.614;19.684;2022-09-09T04:08:30;100039.75;;;16.05;100.00
45927;BME280;31639;47.614;19.684;2022-09-09T04:13:35;100045.31;;;16.03;100.00
45927;BME280;31639;47.614;19.684;2022-09-09T04:18:35;100046.91;;;15.99;100.00
45927;BME280;31639;47.614;19.684;2022-09-09T04:23:36;100048.53;;;15.95;100.00
45927;BME280;31639;47.614;19.684;2022-09-09T04:28:36;100061.03;;;15.95;100.00
45927;BME280;31639;47.614;19.684;2022-09-09T04:33:37;100055.44;;;15.91;100.00
45927;BME280;31639;47.614;19.684;2022-09-09T04:38:38;100064.50;;;15.95;100.00
45927;BME280;31639;47.614;19.684;2022-09-09T04:43:39;100068.19;;;15.99;100.00
45927;BME280;31639;47.614;19.684;2022-09-09T04:48:39;100067.66;;;16.08;100.00
45927;BME280;31639;47.614;19.684;2022-09-09T04:53:40;100065.25;;;16.16;100.00
45927;BME280;31639;47.614;19.684;2022-09-09T04:58:41;100057.53;;;16.25;100.00
45927;BME280;31639;47.614;19.684;2022-09-09T05:03:46;100053.75;;;16.37;100.00
45927;BME280;31639;47.614;19.684;2022-09-09T05:08:46;100055.06;;;16.49;100.00
45927;BME280;31639;47.614;19.684;2022-09-09T05:13:48;100046.78;;;16.61;100.00
45927;BME280;31639;47.614;19.684;2022-09-09T05:18:50;100065.88;;;16.74;100.00
45927;BME280;31639;47.614;19.684;2022-09-09T05:23:51;100063.69;;;16.91;100.00
45927;BME280;31639;47.614;19.684;2022-09-09T05:28:53;100061.78;;;17.02;100.00
45927;BME280;31639;47.614;19.684;2022-09-09T05:33:55;100061.47;;;17.14;100.00
45927;BME280;31639;47.614;19.684;2022-09-09T05:38:56;100076.03;;;17.32;100.00
45927;BME280;31639;47.614;19.684;2022-09-09T05:44:12;100078.03;;;17.51;100.00
45927;BME280;31639;47.614;19.684;2022-09-09T05:49:20;100072.63;;;17.61;100.00
45927;BME280;31639;47.614;19.684;2022-09-09T05:54:36;100062.38;;;17.74;100.00
45927;BME280;31639;47.614;19.684;2022-09-09T05:59:55;100068.88;;;17.97;100.00
45927;BME280;31639;47.614;19.684;2022-09-09T06:04:58;100080.16;;;18.18;100.00
45927;BME280;31639;47.614;19.684;2022-09-09T06:09:58;100085.13;;;18.54;100.00
45927;BME280;31639;47.614;19.684;2022-09-09T06:15:02;100083.97;;;18.85;100.00
45927;BME280;31639;47.614;19.684;2022-09-09T06:20:08;100087.28;;;19.20;100.00
45927;BME280;31639;47.614;19.684;2022-09-09T06:25:16;100079.00;;;19.55;100.00
45927;BME280;31639;47.614;19.684;2022-09-09T06:30:18;100085.34;;;19.78;100.00
45927;BME280;31639;47.614;19.684;2022-09-09T06:35:19;100093.16;;;19.93;100.00
45927;BME280;31639;47.614;19.684;2022-09-09T06:40:19;100094.66;;;20.13;100.00
45927;BME280;31639;47.614;19.684;2022-09-09T06:45:20;100089.84;;;20.30;100.00
45927;BME280;31639;47.614;19.684;2022-09-09T06:50:20;100087.16;;;20.57;100.00
45927;BME280;31639;47.614;19.684;2022-09-09T06:55:21;100091.41;;;20.72;100.00
45927;BME280;31639;47.614;19.684;2022-09-09T07:00:21;100090.66;;;20.72;100.00
45927;BME280;31639;47.614;19.684;2022-09-09T07:05:21;100097.50;;;20.78;99.42
45927;BME280;31639;47.614;19.684;2022-09-09T07:10:22;100104.03;;;21.00;96.60
45927;BME280;31639;47.614;19.684;2022-09-09T07:15:22;100101.53;;;21.40;92.00
45927;BME280;31639;47.614;19.684;2022-09-09T07:20:23;100100.47;;;21.64;89.81
45927;BME280;31639;47.614;19.684;2022-09-09T07:25:23;100124.72;;;22.04;86.20
45927;BME280;31639;47.614;19.684;2022-09-09T07:30:24;100114.53;;;22.47;84.66
45927;BME280;31639;47.614;19.684;2022-09-09T07:35:24;100119.63;;;23.24;79.33
45927;BME280;31639;47.614;19.684;2022-09-09T07:40:25;100119.44;;;23.73;74.44
45927;BME280;31639;47.614;19.684;2022-09-09T07:45:26;100110.69;;;24.02;71.57
45927;BME280;31639;47.614;19.684;2022-09-09T07:50:28;100121.66;;;23.71;71.75
45927;BME280;31639;47.614;19.684;2022-09-09T07:55:28;100129.56;;;23.06;75.00
45927;BME280;31639;47.614;19.684;2022-09-09T08:00:29;100134.00;;;23.19;75.20
45927;BME280;31639;47.614;19.684;2022-09-09T08:05:29;100132.47;;;26.39;62.97
45927;BME280;31639;47.614;19.684;2022-09-09T08:10:29;100139.28;;;28.25;56.75
45927;BME280;31639;47.614;19.684;2022-09-09T08:15:31;100129.94;;;29.69;49.82
45927;BME280;31639;47.614;19.684;2022-09-09T08:20:32;100121.81;;;30.96;46.69
45927;BME280;31639;47.614;19.684;2022-09-09T08:25:32;100126.63;;;31.71;43.95
45927;BME280;31639;47.614;19.684;2022-09-09T08:30:34;100129.59;;;30.63;46.02
45927;BME280;31639;47.614;19.684;2022-09-09T08:35:34;100130.69;;;29.66;48.91
45927;BME280;31639;47.614;19.684;2022-09-09T08:40:38;100128.41;;;29.48;49.46
45927;BME280;31639;47.614;19.684;2022-09-09T08:45:57;100118.75;;;29.51;49.16
45927;BME280;31639;47.614;19.684;2022-09-09T08:51:01;100118.66;;;29.90;47.25
45927;BME280;31639;47.614;19.684;2022-09-09T08:56:09;100118.47;;;30.76;46.11
45927;BME280;31639;47.614;19.684;2022-09-09T09:01:42;100120.53;;;32.34;41.67
45927;BME280;31639;47.614;19.684;2022-09-09T09:11:53;100129.69;;;32.67;38.66
45927;BME280;31639;47.614;19.684;2022-09-09T09:17:12;100116.31;;;36.91;31.30
45927;BME280;31639;47.614;19.684;2022-09-09T09:22:43;100120.31;;;39.04;28.13
45927;BME280;31639;47.614;19.684;2022-09-09T09:38:01;100115.66;;;29.52;42.12
45927;BME280;31639;47.614;19.684;2022-09-09T09:43:04;100111.16;;;29.01;45.72
45927;BME280;31639;47.614;19.684;2022-09-09T09:48:11;100109.78;;;28.91;47.46
45927;BME280;31639;47.614;19.684;2022-09-09T09:53:24;100105.84;;;28.89;46.59
45927;BME280;31639;47.614;19.684;2022-09-09T09:58:52;100114.09;;;29.12;47.06
45927;BME280;31639;47.614;19.684;2022-09-09T10:03:57;100107.91;;;29.74;46.83
45927;BME280;31639;47.614;19.684;2022-09-09T10:08:59;100112.06;;;34.76;36.39
45927;BME280;31639;47.614;19.684;2022-09-09T10:14:20;100105.19;;;44.42;23.13
45927;BME280;31639;47.614;19.684;2022-09-09T10:19:29;100108.84;;;45.92;20.10
45927;BME280;31639;47.614;19.684;2022-09-09T10:30:23;100101.53;;;44.17;21.51
45927;BME280;31639;47.614;19.684;2022-09-09T10:35:35;100102.75;;;47.55;18.35
45927;BME280;31639;47.614;19.684;2022-09-09T10:56:54;100089.53;;;51.41;14.92
45927;BME280;31639;47.614;19.684;2022-09-09T11:02:01;100084.84;;;52.33;14.04
45927;BME280;31639;47.614;19.684;2022-09-09T11:07:12;100072.09;;;51.01;14.96
45927;BME280;31639;47.614;19.684;2022-09-09T11:12:18;100085.09;;;41.83;21.79
45927;BME280;31639;47.614;19.684;2022-09-09T11:17:23;100086.13;;;45.60;18.99
45927;BME280;31639;47.614;19.684;2022-09-09T11:22:30;100098.66;;;41.03;22.24
45927;BME280;31639;47.614;19.684;2022-09-09T11:38:29;100083.03;;;45.09;20.14
45927;BME280;31639;47.614;19.684;2022-09-09T11:43:40;100080.09;;;46.91;17.84
45927;BME280;31639;47.614;19.684;2022-09-09T11:48:43;100076.78;;;49.30;16.36
45927;BME280;31639;47.614;19.684;2022-09-09T11:53:56;100076.41;;;49.60;15.19
45927;BME280;31639;47.614;19.684;2022-09-09T11:59:04;100073.44;;;50.66;14.65
45927;BME280;31639;47.614;19.684;2022-09-09T12:19:36;100054.22;;;50.93;12.33
45927;BME280;31639;47.614;19.684;2022-09-09T12:30:15;100046.72;;;49.24;13.57
45927;BME280;31639;47.614;19.684;2022-09-09T12:35:20;100033.41;;;50.03;13.50
45927;BME280;31639;47.614;19.684;2022-09-09T12:40:29;100043.56;;;44.86;15.94
45927;BME280;31639;47.614;19.684;2022-09-09T12:45:31;100037.03;;;44.56;16.92
45927;BME280;31639;47.614;19.684;2022-09-09T12:50:38;100036.56;;;46.33;15.79
45927;BME280;31639;47.614;19.684;2022-09-09T12:55:50;100028.06;;;43.62;16.94
45927;BME280;31639;47.614;19.684;2022-09-09T13:00:53;100019.28;;;45.45;16.05
45927;BME280;31639;47.614;19.684;2022-09-09T13:05:58;100021.28;;;46.94;15.09
45927;BME280;31639;47.614;19.684;2022-09-09T13:11:07;100012.63;;;47.81;14.53
45927;BME280;31639;47.614;19.684;2022-09-09T13:16:31;100004.25;;;47.81;14.53
45927;BME280;31639;47.614;19.684;2022-09-09T13:21:36;99994.28;;;48.70;13.84
45927;BME280;31639;47.614;19.684;2022-09-09T13:26:37;99988.47;;;48.79;13.46
45927;BME280;31639;47.614;19.684;2022-09-09T13:31:38;99975.44;;;49.37;13.23
45927;BME280;31639;47.614;19.684;2022-09-09T13:36:40;99967.34;;;48.78;13.43
45927;BME280;31639;47.614;19.684;2022-09-09T13:41:45;99974.78;;;48.12;13.88
45927;BME280;31639;47.614;19.684;2022-09-09T13:46:46;99968.53;;;46.61;14.72
45927;BME280;31639;47.614;19.684;2022-09-09T13:51:51;99954.03;;;46.56;14.54
45927;BME280;31639;47.614;19.684;2022-09-09T13:56:54;99947.81;;;46.47;14.40
45927;BME280;31639;47.614;19.684;2022-09-09T14:01:55;99948.53;;;47.71;13.77
45927;BME280;31639;47.614;19.684;2022-09-09T14:06:56;99952.69;;;47.08;13.99
45927;BME280;31639;47.614;19.684;2022-09-09T14:11:57;99949.53;;;45.15;15.08
45927;BME280;31639;47.614;19.684;2022-09-09T14:16:57;99946.56;;;44.70;14.94
45927;BME280;31639;47.614;19.684;2022-09-09T14:21:58;99942.13;;;44.97;15.25
45927;BME280;31639;47.614;19.684;2022-09-09T14:26:58;99940.31;;;44.17;15.34
45927;BME280;31639;47.614;19.684;2022-09-09T14:31:59;99933.88;;;44.78;15.22
45927;BME280;31639;47.614;19.684;2022-09-09T14:37:01;99930.06;;;43.62;15.77
45927;BME280;31639;47.614;19.684;2022-09-09T14:42:02;99921.22;;;39.10;18.76
45927;BME280;31639;47.614;19.684;2022-09-09T14:47:02;99925.41;;;37.87;20.35
45927;BME280;31639;47.614;19.684;2022-09-09T14:52:03;99930.44;;;39.95;19.27
45927;BME280;31639;47.614;19.684;2022-09-09T14:57:04;99933.75;;;37.16;20.75
45927;BME280;31639;47.614;19.684;2022-09-09T15:02:05;99942.84;;;36.27;21.40
45927;BME280;31639;47.614;19.684;2022-09-09T15:07:05;99937.66;;;36.33;21.38
45927;BME280;31639;47.614;19.684;2022-09-09T15:12:05;99923.91;;;34.58;22.47
45927;BME280;31639;47.614;19.684;2022-09-09T15:17:06;99924.56;;;33.15;23.75
45927;BME280;31639;47.614;19.684;2022-09-09T15:22:07;99927.69;;;31.93;25.72
45927;BME280;31639;47.614;19.684;2022-09-09T15:27:08;99943.56;;;30.90;27.29
45927;BME280;31639;47.614;19.684;2022-09-09T15:32:09;99947.16;;;30.02;28.60
45927;BME280;31639;47.614;19.684;2022-09-09T15:37:10;99941.94;;;29.20;30.62
45927;BME280;31639;47.614;19.684;2022-09-09T15:42:13;99937.81;;;28.64;33.09
45927;BME280;31639;47.614;19.684;2022-09-09T15:47:13;99947.00;;;28.20;34.72
45927;BME280;31639;47.614;19.684;2022-09-09T15:52:13;99941.22;;;28.05;34.30
45927;BME280;31639;47.614;19.684;2022-09-09T15:57:14;99940.00;;;28.03;34.00
45927;BME280;31639;47.614;19.684;2022-09-09T16:02:14;99940.78;;;28.03;34.50
45927;BME280;31639;47.614;19.684;2022-09-09T16:07:15;99950.59;;;27.92;35.49
45927;BME280;31639;47.614;19.684;2022-09-09T16:12:15;99955.69;;;27.61;35.71
45927;BME280;31639;47.614;19.684;2022-09-09T16:17:16;99955.38;;;27.18;37.61
45927;BME280;31639;47.614;19.684;2022-09-09T16:22:16;99956.38;;;26.69;39.36
45927;BME280;31639;47.614;19.684;2022-09-09T16:27:18;99959.88;;;26.29;41.58
45927;BME280;31639;47.614;19.684;2022-09-09T16:32:18;99957.84;;;25.89;43.94
45927;BME280;31639;47.614;19.684;2022-09-09T16:37:18;99956.25;;;25.63;45.63
45927;BME280;31639;47.614;19.684;2022-09-09T16:42:19;99959.97;;;25.46;47.24
45927;BME280;31639;47.614;19.684;2022-09-09T16:47:19;99961.84;;;25.12;48.95
45927;BME280;31639;47.614;19.684;2022-09-09T16:52:20;99960.91;;;24.95;48.71
45927;BME280;31639;47.614;19.684;2022-09-09T16:57:20;99962.09;;;24.85;48.60
45927;BME280;31639;47.614;19.684;2022-09-09T17:02:21;99964.97;;;24.59;51.68
45927;BME280;31639;47.614;19.684;2022-09-09T17:07:21;99977.75;;;24.49;53.92
45927;BME280;31639;47.614;19.684;2022-09-09T17:12:22;99980.31;;;24.46;56.29
45927;BME280;31639;47.614;19.684;2022-09-09T17:17:23;99991.94;;;24.38;60.76
45927;BME280;31639;47.614;19.684;2022-09-09T17:22:23;99979.03;;;24.22;65.47
45927;BME280;31639;47.614;19.684;2022-09-09T17:27:24;99983.41;;;24.06;68.03
45927;BME280;31639;47.614;19.684;2022-09-09T17:32:24;99991.53;;;23.88;71.58
45927;BME280;31639;47.614;19.684;2022-09-09T17:37:25;99994.31;;;23.70;72.68
45927;BME280;31639;47.614;19.684;2022-09-09T17:42:25;100001.94;;;23.59;74.02
45927;BME280;31639;47.614;19.684;2022-09-09T17:47:26;100014.94;;;23.57;74.86
45927;BME280;31639;47.614;19.684;2022-09-09T17:52:26;100018.25;;;23.54;75.35
45927;BME280;31639;47.614;19.684;2022-09-09T17:57:28;100031.41;;;23.47;75.95
45927;BME280;31639;47.614;19.684;2022-09-09T18:02:28;100034.09;;;23.38;76.44
45927;BME280;31639;47.614;19.684;2022-09-09T18:07:28;100040.47;;;23.25;77.04
45927;BME280;31639;47.614;19.684;2022-09-09T18:12:29;100025.25;;;23.11;78.20
45927;BME280;31639;47.614;19.684;2022-09-09T18:17:30;100032.06;;;23.00;78.52
45927;BME280;31639;47.614;19.684;2022-09-09T18:22:32;100035.88;;;22.90;79.55
45927;BME280;31639;47.614;19.684;2022-09-09T18:27:32;100029.53;;;22.86;80.03
45927;BME280;31639;47.614;19.684;2022-09-09T18:32:33;100025.25;;;22.76;80.32
45927;BME280;31639;47.614;19.684;2022-09-09T18:37:34;100031.09;;;22.69;80.94
45927;BME280;31639;47.614;19.684;2022-09-09T18:42:35;100032.19;;;22.68;81.05
45927;BME280;31639;47.614;19.684;2022-09-09T18:47:35;100017.00;;;22.64;81.46
45927;BME280;31639;47.614;19.684;2022-09-09T18:52:36;100022.53;;;22.59;81.90
45927;BME280;31639;47.614;19.684;2022-09-09T18:57:37;100023.78;;;22.52;82.35
45927;BME280;31639;47.614;19.684;2022-09-09T19:02:38;100033.88;;;22.47;82.75
45927;BME280;31639;47.614;19.684;2022-09-09T19:07:38;100042.06;;;22.42;83.02
45927;BME280;31639;47.614;19.684;2022-09-09T19:12:40;100037.94;;;22.35;83.75
45927;BME280;31639;47.614;19.684;2022-09-09T19:17:41;100029.53;;;22.28;83.75
45927;BME280;31639;47.614;19.684;2022-09-09T19:22:41;100035.38;;;22.21;84.01
45927;BME280;31639;47.614;19.684;2022-09-09T19:27:42;100028.03;;;22.04;84.59
45927;BME280;31639;47.614;19.684;2022-09-09T19:32:42;100023.41;;;21.96;85.22
45927;BME280;31639;47.614;19.684;2022-09-09T19:37:43;100021.19;;;21.89;85.37
45927;BME280;31639;47.614;19.684;2022-09-09T19:42:43;100007.72;;;21.81;85.81
45927;BME280;31639;47.614;19.684;2022-09-09T19:47:44;100016.19;;;21.74;85.87
45927;BME280;31639;47.614;19.684;2022-09-09T19:52:44;100017.72;;;21.66;86.43
45927;BME280;31639;47.614;19.684;2022-09-09T19:57:44;100017.56;;;21.62;86.37
45927;BME280;31639;47.614;19.684;2022-09-09T20:02:45;100015.78;;;21.58;86.52
45927;BME280;31639;47.614;19.684;2022-09-09T20:07:45;100015.41;;;21.51;86.73
45927;BME280;31639;47.614;19.684;2022-09-09T20:12:46;100018.22;;;21.45;87.11
45927;BME280;31639;47.614;19.684;2022-09-09T20:17:46;100023.72;;;21.40;87.27
45927;BME280;31639;47.614;19.684;2022-09-09T20:22:47;100032.06;;;21.39;87.06
45927;BME280;31639;47.614;19.684;2022-09-09T20:27:47;100026.19;;;21.37;87.11
45927;BME280;31639;47.614;19.684;2022-09-09T20:32:48;100018.47;;;21.35;87.07
45927;BME280;31639;47.614;19.684;2022-09-09T20:37:49;100021.16;;;21.35;86.92
45927;BME280;31639;47.614;19.684;2022-09-09T20:42:49;100024.75;;;21.30;87.53
45927;BME280;31639;47.614;19.684;2022-09-09T20:47:50;100018.28;;;21.31;87.29
45927;BME280;31639;47.614;19.684;2022-09-09T20:52:52;100024.25;;;21.28;87.27
45927;BME280;31639;47.614;19.684;2022-09-09T20:57:52;100027.38;;;21.22;87.88
45927;BME280;31639;47.614;19.684;2022-09-09T21:02:53;100014.38;;;21.15;87.75
45927;BME280;31639;47.614;19.684;2022-09-09T21:07:53;100012.81;;;21.14;87.65
45927;BME280;31639;47.614;19.684;2022-09-09T21:12:55;100008.22;;;21.14;87.17
45927;BME280;31639;47.614;19.684;2022-09-09T21:17:56;99996.72;;;21.14;86.88
45927;BME280;31639;47.614;19.684;2022-09-09T21:22:56;100005.03;;;21.12;86.78
45927;BME280;31639;47.614;19.684;2022-09-09T21:27:57;99988.47;;;21.10;86.65
45927;BME280;31639;47.614;19.684;2022-09-09T21:32:57;99982.91;;;21.07;87.11
45927;BME280;31639;47.614;19.684;2022-09-09T21:37:58;99989.69;;;21.04;86.53
45927;BME280;31639;47.614;19.684;2022-09-09T21:42:59;99983.84;;;21.02;86.75
45927;BME280;31639;47.614;19.684;2022-09-09T21:47:59;99980.84;;;21.03;86.12
45927;BME280;31639;47.614;19.684;2022-09-09T21:52:59;99974.97;;;21.01;85.85
45927;BME280;31639;47.614;19.684;2022-09-09T21:58:00;99969.16;;;20.99;86.03
45927;BME280;31639;47.614;19.684;2022-09-09T22:03:01;99962.50;;;20.97;85.91
45927;BME280;31639;47.614;19.684;2022-09-09T22:08:02;99964.41;;;20.96;85.70
45927;BME280;31639;47.614;19.684;2022-09-09T22:13:03;99976.50;;;20.94;85.51
45927;BME280;31639;47.614;19.684;2022-09-09T22:18:03;99968.47;;;20.94;85.72
45927;BME280;31639;47.614;19.684;2022-09-09T22:23:04;99962.59;;;20.92;85.35
45927;BME280;31639;47.614;19.684;2022-09-09T22:28:06;99962.59;;;20.92;85.08
45927;BME280;31639;47.614;19.684;2022-09-09T22:33:07;99965.59;;;20.90;84.93
45927;BME280;31639;47.614;19.684;2022-09-09T22:38:11;99959.47;;;20.90;84.15
45927;BME280;31639;47.614;19.684;2022-09-09T22:43:15;99969.38;;;20.89;84.17
45927;BME280;31639;47.614;19.684;2022-09-09T22:48:16;99968.38;;;20.85;84.47
45927;BME280;31639;47.614;19.684;2022-09-09T22:53:17;99965.03;;;20.79;84.54
45927;BME280;31639;47.614;19.684;2022-09-09T22:58:17;99962.06;;;20.81;84.62
45927;BME280;31639;47.614;19.684;2022-09-09T23:03:18;99954.03;;;20.67;85.26
45927;BME280;31639;47.614;19.684;2022-09-09T23:08:24;99953.03;;;20.63;85.90
45927;BME280;31639;47.614;19.684;2022-09-09T23:13:26;99947.78;;;20.57;87.75
45927;BME280;31639;47.614;19.684;2022-09-09T23:18:28;99939.56;;;20.54;90.21
45927;BME280;31639;47.614;19.684;2022-09-09T23:23:28;99940.91;;;20.42;91.05
45927;BME280;31639;47.614;19.684;2022-09-09T23:28:30;99942.78;;;20.28;92.00
45927;BME280;31639;47.614;19.684;2022-09-09T23:33:32;99950.63;;;20.24;93.30
45927;BME280;31639;47.614;19.684;2022-09-09T23:38:35;99940.63;;;20.16;94.14
45927;BME280;31639;47.614;19.684;2022-09-09T23:43:37;99948.19;;;20.14;95.17
45927;BME280;31639;47.614;19.684;2022-09-09T23:48:38;99936.16;;;20.11;97.07
45927;BME280;31639;47.614;19.684;2022-09-09T23:53:39;99936.06;;;20.03;99.73
45927;BME280;31639;47.614;19.684;2022-09-09T23:58:40;99938.25;;;20.01;100.00
